Time;durP1;ratioP1;P1;durP2;ratioP2;P2;SDS_P1;SDS_P2;PMS_P1;PMS_P2;Temp;Humidity;BMP_temperature;BMP_pressure;BME280_temperature;BME280_humidity;BME280_pressure;Samples;Min_cycle;Max_cycle;Signal;HPM_P1;HPM_P2
2022/04/30 00:02:14;;;;;;;3.67;0.90;;;;;;;;;;5053879;28;20020;-79
2022/04/30 00:04:42;;;;;;;3.25;1.23;;;;;;;;;;5055216;28;20021;-78
2022/04/30 00:07:09;;;;;;;2.30;1.10;;;;;;;;;;5055055;28;20029;-78
2022/04/30 00:09:37;;;;;;;1.40;0.77;;;;;;;;;;5055185;28;20029;-79
2022/04/30 00:12:04;;;;;;;2.10;0.82;;;;;;;;;;5053919;28;20025;-79
2022/04/30 00:14:32;;;;;;;6.28;1.20;;;;;;;;;;5053696;28;20059;-81
2022/04/30 00:16:59;;;;;;;1.70;1.02;;;;;;;;;;5053454;28;20112;-81
2022/04/30 00:19:27;;;;;;;3.50;1.40;;;;;;;;;;5055134;28;20110;-81
2022/04/30 00:21:54;;;;;;;2.03;1.40;;;;;;;;;;5055067;28;20013;-81
2022/04/30 00:24:22;;;;;;;3.38;1.65;;;;;;;;;;5054827;28;20017;-79
2022/04/30 00:26:51;;;;;;;4.53;1.63;;;;;;;;;;5053600;28;20047;-80
2022/04/30 00:29:18;;;;;;;4.20;2.00;;;;;;;;;;5054661;28;20025;-79
2022/04/30 00:31:46;;;;;;;3.28;1.80;;;;;;;;;;5053509;28;20040;-77
2022/04/30 00:34:13;;;;;;;5.63;1.92;;;;;;;;;;5053492;28;20052;-78
2022/04/30 00:36:40;;;;;;;5.00;1.83;;;;;;;;;;5053447;28;20060;-78
2022/04/30 00:39:07;;;;;;;4.60;1.63;;;;;;;;;;5053422;28;20025;-79
2022/04/30 00:41:34;;;;;;;3.83;1.38;;;;;;;;;;5053498;28;20021;-79
2022/04/30 00:44:01;;;;;;;3.13;1.40;;;;;;;;;;5053230;28;20044;-79
2022/04/30 00:46:29;;;;;;;5.18;1.42;;;;;;;;;;5054510;28;20083;-79
2022/04/30 00:48:57;;;;;;;2.53;0.93;;;;;;;;;;5055677;28;20029;-79
2022/04/30 00:51:25;;;;;;;4.35;1.10;;;;;;;;;;5055533;28;20040;-81
2022/04/30 00:53:56;;;;;;;2.22;0.98;;;;;;;;;;5055949;28;20079;-79
2022/04/30 00:56:25;;;;;;;3.72;1.23;;;;;;;;;;5052916;28;20083;-80
2022/04/30 00:58:55;;;;;;;2.25;1.17;;;;;;;;;;5052804;28;20028;-79
2022/04/30 01:01:26;;;;;;;1.57;0.80;;;;;;;;;;5052119;28;20550;-77
2022/04/30 01:03:53;;;;;;;2.40;0.70;;;;;;;;;;5052728;28;20021;-77
2022/04/30 01:06:27;;;;;;;1.83;0.70;;;;;;;;;;5053956;28;20480;-77
2022/04/30 01:08:55;;;;;;;0.88;0.52;;;;;;;;;;5053899;28;20526;-77
2022/04/30 01:11:22;;;;;;;1.20;0.45;;;;;;;;;;5052626;28;20017;-76
2022/04/30 01:13:49;;;;;;;2.85;0.70;;;;;;;;;;5053886;28;20013;-78
2022/04/30 01:16:17;;;;;;;1.98;0.60;;;;;;;;;;5053649;28;20104;-79
2022/04/30 01:18:45;;;;;;;1.38;0.60;;;;;;;;;;5058709;28;20077;-81
2022/04/30 01:21:12;;;;;;;1.58;0.98;;;;;;;;;;5057464;28;20021;-78
2022/04/30 01:23:44;;;;;;;0.63;0.50;;;;;;;;;;5053696;28;20039;-78
2022/04/30 01:26:13;;;;;;;2.33;0.60;;;;;;;;;;5052496;28;20028;-80
2022/04/30 01:28:43;;;;;;;1.00;0.70;;;;;;;;;;5052290;28;20021;-80
2022/04/30 01:39:33;;;;;;;1.80;0.40;;;;;;;;;;5053735;28;20154;-78
2022/04/30 01:42:06;;;;;;;1.88;0.47;;;;;;;;;;5052289;28;20025;-81
2022/04/30 01:44:34;;;;;;;1.55;0.50;;;;;;;;;;5053858;28;20017;-81
2022/04/30 01:47:01;;;;;;;1.33;0.40;;;;;;;;;;5052208;28;20037;-81
2022/04/30 01:49:28;;;;;;;2.20;0.50;;;;;;;;;;5053369;28;20017;-80
2022/04/30 01:51:55;;;;;;;1.42;0.80;;;;;;;;;;5053330;28;20500;-79
2022/04/30 01:54:22;;;;;;;2.20;1.30;;;;;;;;;;5053233;28;20024;-79
2022/04/30 01:56:49;;;;;;;3.10;0.98;;;;;;;;;;5051738;28;20029;-79
2022/04/30 01:59:16;;;;;;;2.35;0.75;;;;;;;;;;5053179;28;20033;-78
2022/04/30 02:01:44;;;;;;;3.15;0.70;;;;;;;;;;5053132;28;20043;-79
2022/04/30 02:04:11;;;;;;;1.52;0.50;;;;;;;;;;5051669;28;20476;-78
2022/04/30 02:06:39;;;;;;;1.15;0.75;;;;;;;;;;5053084;28;20032;-79
2022/04/30 02:09:06;;;;;;;1.05;0.52;;;;;;;;;;5051669;28;20045;-80
2022/04/30 02:11:33;;;;;;;2.70;0.70;;;;;;;;;;5051630;28;20053;-80
2022/04/30 02:14:02;;;;;;;2.08;0.50;;;;;;;;;;5051728;28;20028;-80
2022/04/30 02:16:29;;;;;;;3.25;0.80;;;;;;;;;;5052799;28;20052;-79
2022/04/30 02:18:59;;;;;;;2.58;0.82;;;;;;;;;;5051670;28;20036;-77
2022/04/30 02:21:29;;;;;;;2.05;0.65;;;;;;;;;;5052858;28;20370;-77
2022/04/30 02:24:00;;;;;;;1.95;0.60;;;;;;;;;;5052058;28;20397;-78
2022/04/30 02:26:27;;;;;;;3.25;0.93;;;;;;;;;;5051522;28;20488;-79
2022/04/30 02:28:57;;;;;;;3.38;0.90;;;;;;;;;;5052915;28;20024;-78
2022/04/30 02:31:25;;;;;;;3.90;0.60;;;;;;;;;;5052863;28;20110;-77
2022/04/30 02:33:56;;;;;;;2.30;0.60;;;;;;;;;;5052773;28;20021;-77
2022/04/30 02:36:26;;;;;;;2.08;0.70;;;;;;;;;;5051271;28;20044;-79
2022/04/30 02:39:00;;;;;;;1.17;0.68;;;;;;;;;;5051427;28;20017;-78
2022/04/30 02:41:28;;;;;;;4.07;1.23;;;;;;;;;;5051545;28;20106;-77
2022/04/30 02:43:56;;;;;;;1.52;0.70;;;;;;;;;;5051332;28;20021;-77
2022/04/30 02:46:23;;;;;;;2.85;1.45;;;;;;;;;;5051207;28;20436;-79
2022/04/30 02:48:50;;;;;;;1.92;1.00;;;;;;;;;;5051266;28;20024;-78
2022/04/30 02:51:19;;;;;;;2.53;1.20;;;;;;;;;;5052643;28;20083;-81
2022/04/30 02:53:47;;;;;;;1.85;1.02;;;;;;;;;;5051548;28;20025;-82
2022/04/30 02:56:14;;;;;;;2.63;1.00;;;;;;;;;;5051408;28;20103;-81
2022/04/30 03:01:26;;;;;;;2.60;1.10;;;;;;;;;;5052483;28;20083;-78
2022/04/30 03:03:53;;;;;;;2.75;1.10;;;;;;;;;;5051159;28;20025;-79
2022/04/30 03:06:22;;;;;;;3.75;1.33;;;;;;;;;;5051129;28;20053;-78
2022/04/30 03:08:49;;;;;;;3.15;0.90;;;;;;;;;;5050896;28;20146;-77
2022/04/30 03:11:19;;;;;;;1.90;1.20;;;;;;;;;;5051049;28;20439;-78
2022/04/30 03:13:47;;;;;;;1.65;0.75;;;;;;;;;;5052391;28;20024;-78
2022/04/30 03:21:45;;;;;;;5.57;1.50;;;;;;;;;;5052358;28;20166;-79
2022/04/30 03:24:18;;;;;;;2.33;1.10;;;;;;;;;;5051165;28;20017;-80
2022/04/30 03:26:46;;;;;;;2.15;0.80;;;;;;;;;;5054827;28;20040;-80
2022/04/30 03:29:14;;;;;;;4.18;0.82;;;;;;;;;;5056268;28;20024;-80
2022/04/30 03:31:45;;;;;;;5.03;1.50;;;;;;;;;;5056108;28;20469;-79
2022/04/30 03:34:14;;;;;;;3.78;1.20;;;;;;;;;;5056916;28;20027;-78
2022/04/30 03:36:41;;;;;;;3.47;1.15;;;;;;;;;;5054941;28;20115;-79
2022/04/30 03:39:09;;;;;;;3.45;1.45;;;;;;;;;;5054567;28;20115;-77
2022/04/30 03:41:36;;;;;;;2.08;1.10;;;;;;;;;;5055764;28;20024;-77
2022/04/30 03:44:03;;;;;;;2.55;1.00;;;;;;;;;;5054351;28;20024;-78
2022/04/30 03:46:31;;;;;;;1.60;1.13;;;;;;;;;;5055695;28;20021;-81
2022/04/30 03:49:03;;;;;;;1.88;0.80;;;;;;;;;;5054401;28;20036;-79
2022/04/30 03:51:30;;;;;;;2.72;0.90;;;;;;;;;;5054366;28;20079;-78
2022/04/30 03:53:57;;;;;;;2.25;1.10;;;;;;;;;;5055411;28;20077;-78
2022/04/30 03:56:25;;;;;;;1.33;0.80;;;;;;;;;;5055359;28;20492;-77
2022/04/30 03:58:52;;;;;;;3.25;0.80;;;;;;;;;;5054107;28;20397;-79
2022/04/30 04:01:21;;;;;;;1.33;0.88;;;;;;;;;;5054140;28;20025;-79
2022/04/30 04:03:50;;;;;;;0.98;0.80;;;;;;;;;;5054029;28;20151;-79
2022/04/30 04:06:18;;;;;;;2.38;1.02;;;;;;;;;;5054274;28;20468;-77
2022/04/30 04:08:50;;;;;;;2.95;1.17;;;;;;;;;;5054055;28;20045;-79
2022/04/30 04:11:18;;;;;;;2.63;1.10;;;;;;;;;;5055200;28;20021;-79
2022/04/30 04:19:15;;;;;;;2.13;1.10;;;;;;;;;;5055335;28;20080;-79
2022/04/30 04:21:42;;;;;;;2.60;1.40;;;;;;;;;;5054945;28;20473;-79
2022/04/30 04:26:55;;;;;;;2.03;1.20;;;;;;;;;;5055214;28;20055;-79
2022/04/30 04:29:22;;;;;;;3.75;1.67;;;;;;;;;;5054799;28;20496;-78
2022/04/30 04:31:49;;;;;;;3.08;1.13;;;;;;;;;;5054850;28;20049;-78
2022/04/30 04:34:16;;;;;;;1.70;1.00;;;;;;;;;;5054643;28;20033;-78
2022/04/30 04:36:43;;;;;;;1.38;1.10;;;;;;;;;;5052305;28;20052;-76
2022/04/30 04:39:12;;;;;;;3.30;1.08;;;;;;;;;;5054970;28;20341;-79
2022/04/30 04:41:40;;;;;;;2.33;1.30;;;;;;;;;;5055062;28;20455;-78
2022/04/30 04:44:07;;;;;;;3.75;1.30;;;;;;;;;;5054920;28;20530;-77
2022/04/30 04:46:35;;;;;;;1.95;0.88;;;;;;;;;;5054875;28;20021;-77
2022/04/30 04:49:02;;;;;;;3.60;0.80;;;;;;;;;;5061502;28;20021;-78
2022/04/30 04:51:29;;;;;;;1.80;0.88;;;;;;;;;;5063772;28;20017;-78
2022/04/30 04:53:56;;;;;;;1.65;0.90;;;;;;;;;;5057858;28;20067;-76
2022/04/30 04:56:24;;;;;;;3.67;0.90;;;;;;;;;;5055417;28;20501;-76
2022/04/30 04:58:51;;;;;;;1.58;0.70;;;;;;;;;;5053412;28;20029;-74
2022/04/30 05:01:21;;;;;;;1.50;0.90;;;;;;;;;;5054246;28;20051;-74
2022/04/30 05:03:48;;;;;;;1.60;0.85;;;;;;;;;;5054093;28;20417;-74
2022/04/30 05:06:15;;;;;;;1.05;0.60;;;;;;;;;;5053137;28;20116;-77
2022/04/30 05:08:43;;;;;;;1.63;0.60;;;;;;;;;;5054986;28;20520;-77
2022/04/30 05:11:10;;;;;;;2.53;0.65;;;;;;;;;;5056799;28;20040;-77
2022/04/30 05:13:38;;;;;;;1.52;0.90;;;;;;;;;;5058787;28;20447;-78
2022/04/30 05:16:05;;;;;;;1.80;0.50;;;;;;;;;;5062136;28;20043;-79
2022/04/30 05:18:32;;;;;;;0.93;0.60;;;;;;;;;;5063249;28;20040;-79
2022/04/30 05:21:00;;;;;;;1.65;0.70;;;;;;;;;;5059164;28;20021;-78
2022/04/30 05:23:27;;;;;;;0.50;0.40;;;;;;;;;;5059696;28;20045;-78
2022/04/30 05:25:54;;;;;;;0.85;0.50;;;;;;;;;;5054296;28;20055;-78
2022/04/30 05:28:22;;;;;;;2.75;0.82;;;;;;;;;;5054007;28;20025;-78
2022/04/30 05:30:49;;;;;;;2.15;0.50;;;;;;;;;;5053881;28;20049;-78
2022/04/30 05:33:16;;;;;;;0.93;0.50;;;;;;;;;;5052435;28;20029;-78
2022/04/30 05:35:43;;;;;;;0.70;0.50;;;;;;;;;;5053254;28;20031;-78
2022/04/30 05:38:10;;;;;;;1.65;0.40;;;;;;;;;;5052647;28;20504;-78
2022/04/30 05:40:38;;;;;;;0.80;0.60;;;;;;;;;;5052268;28;20059;-77
2022/04/30 05:43:06;;;;;;;1.00;0.45;;;;;;;;;;5052154;28;20025;-78
2022/04/30 05:45:33;;;;;;;0.77;0.50;;;;;;;;;;5053563;28;20025;-78
2022/04/30 05:48:00;;;;;;;2.05;0.60;;;;;;;;;;5053948;28;20021;-78
2022/04/30 05:50:27;;;;;;;1.30;0.73;;;;;;;;;;5054764;28;20020;-79
2022/04/30 05:52:54;;;;;;;1.40;0.40;;;;;;;;;;5053720;28;20036;-79
2022/04/30 05:55:22;;;;;;;0.70;0.30;;;;;;;;;;5054131;28;20497;-77
2022/04/30 05:57:49;;;;;;;0.80;0.40;;;;;;;;;;5051874;28;20370;-78
2022/04/30 06:00:17;;;;;;;2.05;0.60;;;;;;;;;;5053197;28;20027;-78
2022/04/30 06:02:44;;;;;;;0.85;0.50;;;;;;;;;;5051919;28;20025;-78
2022/04/30 06:05:12;;;;;;;1.38;0.60;;;;;;;;;;5053080;28;20017;-78
2022/04/30 06:07:39;;;;;;;1.40;0.50;;;;;;;;;;5053153;28;20047;-78
2022/04/30 06:10:06;;;;;;;0.45;0.30;;;;;;;;;;5053245;28;20052;-78
2022/04/30 06:12:37;;;;;;;1.45;0.45;;;;;;;;;;5054114;28;20031;-79
2022/04/30 06:15:03;;;;;;;;;;;;;;;;;;5053537;28;20028;-79
2022/04/30 06:17:30;;;;;;;1.52;0.68;;;;;;;;;;5052869;28;19964;-79
2022/04/30 06:19:57;;;;;;;1.58;0.70;;;;;;;;;;5053114;28;20013;-78
2022/04/30 06:22:25;;;;;;;0.75;0.60;;;;;;;;;;5052983;28;20095;-77
2022/04/30 06:24:52;;;;;;;2.75;0.50;;;;;;;;;;5053109;28;20422;-77
2022/04/30 06:27:20;;;;;;;0.93;0.40;;;;;;;;;;5052848;28;20433;-78
2022/04/30 06:29:49;;;;;;;2.40;0.70;;;;;;;;;;5052167;28;20028;-78
2022/04/30 06:32:16;;;;;;;3.58;0.80;;;;;;;;;;5051947;28;20025;-78
2022/04/30 06:34:44;;;;;;;3.03;0.95;;;;;;;;;;5053418;28;20487;-78
2022/04/30 06:37:11;;;;;;;2.28;0.55;;;;;;;;;;5054314;28;20495;-79
2022/04/30 06:39:38;;;;;;;1.00;0.52;;;;;;;;;;5053568;28;20027;-78
2022/04/30 06:42:05;;;;;;;1.27;0.75;;;;;;;;;;5053323;28;20025;-77
2022/04/30 06:44:32;;;;;;;1.52;0.88;;;;;;;;;;5053589;28;20419;-78
2022/04/30 06:46:59;;;;;;;0.60;0.40;;;;;;;;;;5051949;28;20032;-78
2022/04/30 06:49:27;;;;;;;4.55;1.73;;;;;;;;;;5051908;28;20029;-75
2022/04/30 06:51:54;;;;;;;6.25;5.60;;;;;;;;;;5051255;28;20053;-76
2022/04/30 06:57:12;;;;;;;1.48;0.75;;;;;;;;;;5052513;28;20072;-76
2022/04/30 06:59:41;;;;;;;1.58;1.23;;;;;;;;;;5051892;28;20020;-77
2022/04/30 07:02:22;;;;;;;2.28;2.08;;;;;;;;;;5054990;28;20021;-78
2022/04/30 07:04:51;;;;;;;2.85;2.22;;;;;;;;;;5054831;28;20021;-75
2022/04/30 07:07:19;;;;;;;3.33;1.80;;;;;;;;;;5056093;28;20028;-76
2022/04/30 07:09:47;;;;;;;2.55;1.88;;;;;;;;;;5055340;28;20025;-78
2022/04/30 07:12:14;;;;;;;3.60;1.98;;;;;;;;;;5055075;28;20125;-75
2022/04/30 07:14:44;;;;;;;3.08;1.80;;;;;;;;;;5054678;28;20098;-76
2022/04/30 07:17:12;;;;;;;2.63;1.70;;;;;;;;;;5054709;28;20059;-75
2022/04/30 07:19:40;;;;;;;2.30;1.20;;;;;;;;;;5056164;28;20025;-76
2022/04/30 07:22:10;;;;;;;2.42;1.30;;;;;;;;;;5055974;28;20078;-76
2022/04/30 07:24:37;;;;;;;3.17;1.45;;;;;;;;;;5056042;28;20025;-76
2022/04/30 07:27:05;;;;;;;2.92;1.13;;;;;;;;;;5056023;28;20040;-76
2022/04/30 07:29:33;;;;;;;3.03;1.27;;;;;;;;;;5055861;28;20017;-76
2022/04/30 07:32:00;;;;;;;4.80;4.05;;;;;;;;;;5055856;28;20032;-76
2022/04/30 07:34:28;;;;;;;33.75;31.73;;;;;;;;;;5055631;28;20048;-76
2022/04/30 07:36:55;;;;;;;14.07;13.00;;;;;;;;;;5054277;28;20051;-76
2022/04/30 07:39:22;;;;;;;7.28;6.65;;;;;;;;;;5054366;28;20496;-75
2022/04/30 07:41:49;;;;;;;14.82;13.82;;;;;;;;;;5054436;28;20021;-76
2022/04/30 07:44:17;;;;;;;5.63;5.13;;;;;;;;;;5054297;28;20025;-75
2022/04/30 07:46:44;;;;;;;2.83;2.40;;;;;;;;;;5054310;28;20071;-75
2022/04/30 07:49:11;;;;;;;3.13;2.72;;;;;;;;;;5055617;28;20025;-75
2022/04/30 07:51:42;;;;;;;13.95;13.00;;;;;;;;;;5054398;28;20064;-79
2022/04/30 07:54:10;;;;;;;6.35;5.75;;;;;;;;;;5054266;28;20480;-79
2022/04/30 07:56:37;;;;;;;5.03;4.25;;;;;;;;;;5054110;28;20059;-80
2022/04/30 07:59:04;;;;;;;4.68;3.72;;;;;;;;;;5054152;28;20032;-79
2022/04/30 08:01:31;;;;;;;5.57;3.67;;;;;;;;;;5055406;28;20493;-79
2022/04/30 08:03:59;;;;;;;4.47;3.53;;;;;;;;;;5053855;28;20032;-78
2022/04/30 08:06:26;;;;;;;4.75;3.67;;;;;;;;;;5055459;28;20035;-79
2022/04/30 08:08:53;;;;;;;5.38;4.90;;;;;;;;;;5055331;28;20095;-79
2022/04/30 08:11:20;;;;;;;6.55;5.95;;;;;;;;;;5055113;28;20370;-80
2022/04/30 08:13:47;;;;;;;9.50;8.73;;;;;;;;;;5055242;28;20445;-80
2022/04/30 08:16:14;;;;;;;7.25;6.60;;;;;;;;;;5053987;28;20104;-78
2022/04/30 08:18:42;;;;;;;6.90;6.15;;;;;;;;;;5054188;28;20375;-74
2022/04/30 08:21:09;;;;;;;5.80;5.30;;;;;;;;;;5053921;28;20017;-75
2022/04/30 08:23:36;;;;;;;6.07;5.47;;;;;;;;;;5055111;28;20025;-75
2022/04/30 08:26:04;;;;;;;7.63;6.93;;;;;;;;;;5053810;28;20052;-76
2022/04/30 08:28:31;;;;;;;6.90;6.18;;;;;;;;;;5055144;28;20078;-75
2022/04/30 08:30:58;;;;;;;3.83;3.05;;;;;;;;;;5055036;28;20072;-75
2022/04/30 08:33:26;;;;;;;3.95;2.30;;;;;;;;;;5053697;28;20024;-75
2022/04/30 08:35:53;;;;;;;3.13;2.40;;;;;;;;;;5055081;28;20029;-76
2022/04/30 08:38:21;;;;;;;3.25;2.28;;;;;;;;;;5053532;28;20029;-78
2022/04/30 08:40:48;;;;;;;3.40;2.10;;;;;;;;;;5053489;28;20044;-75
2022/04/30 08:43:16;;;;;;;10.70;9.35;;;;;;;;;;5053242;28;20025;-75
2022/04/30 08:45:47;;;;;;;12.68;11.45;;;;;;;;;;5054617;28;20040;-76
2022/04/30 08:48:15;;;;;;;19.95;18.13;;;;;;;;;;5053323;28;20047;-77
2022/04/30 08:50:43;;;;;;;8.70;7.88;;;;;;;;;;5054597;28;20098;-75
2022/04/30 08:53:10;;;;;;;4.93;2.45;;;;;;;;;;5054380;28;20048;-76
2022/04/30 08:55:38;;;;;;;2.70;1.92;;;;;;;;;;5053213;28;20444;-76
2022/04/30 08:58:05;;;;;;;1.95;1.60;;;;;;;;;;5054384;28;20036;-79
2022/04/30 09:00:39;;;;;;;4.60;2.38;;;;;;;;;;5054365;28;20017;-80
2022/04/30 09:03:06;;;;;;;6.60;4.35;;;;;;;;;;5054353;28;20048;-79
2022/04/30 09:05:38;;;;;;;5.88;5.22;;;;;;;;;;5052923;28;20439;-79
2022/04/30 09:08:06;;;;;;;3.83;2.75;;;;;;;;;;5052666;28;20044;-79
2022/04/30 09:10:34;;;;;;;3.80;2.25;;;;;;;;;;5054257;28;20029;-79
2022/04/30 09:13:08;;;;;;;3.17;1.98;;;;;;;;;;5054224;28;20028;-79
2022/04/30 09:15:35;;;;;;;3.60;1.70;;;;;;;;;;5054250;28;20056;-81
2022/04/30 09:18:04;;;;;;;3.25;2.20;;;;;;;;;;5054335;28;20090;-81
2022/04/30 09:20:31;;;;;;;2.63;2.00;;;;;;;;;;5053136;28;20021;-81
2022/04/30 09:22:58;;;;;;;7.20;3.95;;;;;;;;;;5053708;28;20018;-80
2022/04/30 09:25:26;;;;;;;4.25;3.60;;;;;;;;;;5054044;28;20025;-81
2022/04/30 09:27:53;;;;;;;2.72;2.30;;;;;;;;;;5052842;28;20017;-81
2022/04/30 09:30:29;;;;;;;4.63;2.50;;;;;;;;;;5055071;28;20047;-78
2022/04/30 09:33:04;;;;;;;4.35;2.83;;;;;;;;;;5054944;28;20025;-79
2022/04/30 09:38:17;;;;;;;5.43;3.92;;;;;;;;;;5055252;28;20075;-78
2022/04/30 09:40:55;;;;;;;6.45;3.97;;;;;;;;;;5052636;28;20378;-79
2022/04/30 09:43:28;;;;;;;8.35;4.15;;;;;;;;;;5053970;28;20449;-80
2022/04/30 09:46:00;;;;;;;8.05;4.55;;;;;;;;;;5053878;28;20028;-80
2022/04/30 09:54:02;;;;;;;5.68;4.07;;;;;;;;;;5054533;28;20111;-78
2022/04/30 09:56:36;;;;;;;4.93;3.25;;;;;;;;;;5053274;28;20032;-78
2022/04/30 09:59:13;;;;;;;6.15;4.13;;;;;;;;;;5054445;28;20029;-79
2022/04/30 10:01:45;;;;;;;9.32;4.43;;;;;;;;;;5052822;28;20556;-78
2022/04/30 10:04:12;;;;;;;8.35;4.32;;;;;;;;;;5054082;28;20017;-79
2022/04/30 10:06:43;;;;;;;7.15;4.45;;;;;;;;;;5054173;28;20025;-79
2022/04/30 10:09:10;;;;;;;;;;;;;;;;;;5053556;28;20041;-79
2022/04/30 10:11:40;;;;;;;9.10;5.35;;;;;;;;;;5053783;28;20000;-78
2022/04/30 10:14:32;;;;;;;8.18;6.05;;;;;;;;;;5053509;28;20385;-76
2022/04/30 10:20:15;;;;;;;8.10;5.05;;;;;;;;;;5048087;28;20507;-77
2022/04/30 10:22:52;;;;;;;9.23;5.15;;;;;;;;;;5051834;28;20017;-78
2022/04/30 10:25:34;;;;;;;7.65;5.15;;;;;;;;;;5053072;28;20020;-77
2022/04/30 10:28:23;;;;;;;7.13;5.15;;;;;;;;;;5051838;28;20025;-77
2022/04/30 10:31:01;;;;;;;7.25;4.75;;;;;;;;;;5053087;28;20029;-78
2022/04/30 10:33:28;;;;;;;6.30;3.70;;;;;;;;;;5052705;28;20021;-78
2022/04/30 10:36:11;;;;;;;4.13;2.95;;;;;;;;;;5052338;28;20059;-76
2022/04/30 10:38:39;;;;;;;5.05;2.97;;;;;;;;;;5051404;28;20025;-75
2022/04/30 10:41:09;;;;;;;5.05;2.03;;;;;;;;;;5052747;28;20017;-76
2022/04/30 10:43:37;;;;;;;3.63;2.13;;;;;;;;;;5051768;28;20035;-77
2022/04/30 10:46:06;;;;;;;7.07;2.78;;;;;;;;;;5052771;28;20524;-75
2022/04/30 10:48:36;;;;;;;3.60;1.90;;;;;;;;;;5052737;28;20025;-75
2022/04/30 10:51:08;;;;;;;4.78;1.80;;;;;;;;;;5052660;28;20035;-75
2022/04/30 10:53:36;;;;;;;3.90;1.67;;;;;;;;;;5051312;28;20033;-77
2022/04/30 10:56:04;;;;;;;3.83;1.35;;;;;;;;;;5052614;28;20100;-75
2022/04/30 10:58:31;;;;;;;2.72;1.50;;;;;;;;;;5052496;28;20028;-75
2022/04/30 11:00:59;;;;;;;2.35;1.33;;;;;;;;;;5052516;28;20017;-74
2022/04/30 11:03:27;;;;;;;3.25;1.23;;;;;;;;;;5051022;28;20021;-74
2022/04/30 11:05:54;;;;;;;7.55;1.88;;;;;;;;;;5052499;28;20021;-75
2022/04/30 11:08:21;;;;;;;3.30;1.38;;;;;;;;;;5052320;28;20037;-74
2022/04/30 11:10:53;;;;;;;2.58;1.23;;;;;;;;;;5052493;28;20094;-74
2022/04/30 11:13:20;;;;;;;1.75;1.02;;;;;;;;;;5052417;28;20408;-74
2022/04/30 11:15:48;;;;;;;4.38;1.60;;;;;;;;;;5052555;28;20027;-74
2022/04/30 11:18:21;;;;;;;4.65;1.80;;;;;;;;;;5051089;28;20052;-74
2022/04/30 11:20:49;;;;;;;2.17;0.88;;;;;;;;;;5052387;28;20028;-74
2022/04/30 11:23:23;;;;;;;3.25;1.05;;;;;;;;;;5051005;28;20025;-74
2022/04/30 11:25:50;;;;;;;3.45;1.00;;;;;;;;;;5051044;28;20026;-74
2022/04/30 11:28:17;;;;;;;2.30;0.90;;;;;;;;;;5052379;28;20029;-74
2022/04/30 11:30:46;;;;;;;2.88;1.20;;;;;;;;;;5052237;28;20385;-75
2022/04/30 11:33:13;;;;;;;4.13;1.20;;;;;;;;;;5052184;28;20367;-74
2022/04/30 11:35:40;;;;;;;3.17;1.10;;;;;;;;;;5052333;28;20021;-75
2022/04/30 11:38:11;;;;;;;3.58;1.00;;;;;;;;;;5052195;28;20036;-74
2022/04/30 11:40:44;;;;;;;3.65;1.05;;;;;;;;;;5052125;28;20473;-75
2022/04/30 11:43:11;;;;;;;2.03;1.13;;;;;;;;;;5050934;28;20052;-74
2022/04/30 11:45:38;;;;;;;3.67;1.27;;;;;;;;;;5053096;28;20032;-74
2022/04/30 11:48:06;;;;;;;3.67;1.52;;;;;;;;;;5054476;28;20155;-74
2022/04/30 11:50:33;;;;;;;3.63;1.13;;;;;;;;;;5055748;28;20072;-75
2022/04/30 11:53:00;;;;;;;1.60;0.82;;;;;;;;;;5054454;28;20460;-74
2022/04/30 11:55:29;;;;;;;2.60;1.17;;;;;;;;;;5055688;28;20033;-74
2022/04/30 11:58:04;;;;;;;3.47;1.05;;;;;;;;;;5055444;28;20117;-74
2022/04/30 12:00:35;;;;;;;3.40;1.08;;;;;;;;;;5054255;28;20053;-74
2022/04/30 12:03:02;;;;;;;2.63;0.90;;;;;;;;;;5055379;28;20017;-74
2022/04/30 12:05:31;;;;;;;3.83;0.93;;;;;;;;;;5054072;28;20397;-74
2022/04/30 12:08:04;;;;;;;2.67;1.00;;;;;;;;;;5055157;28;20045;-74
2022/04/30 12:10:31;;;;;;;5.10;1.90;;;;;;;;;;5055437;28;20029;-74
2022/04/30 12:12:59;;;;;;;4.43;2.08;;;;;;;;;;5053914;28;20029;-75
2022/04/30 12:15:27;;;;;;;6.35;4.00;;;;;;;;;;5055243;28;20105;-75
2022/04/30 12:26:40;;;;;;;1.60;0.60;;;;;;;;;;5055404;28;20083;-76
2022/04/30 12:29:23;;;;;;;2.72;0.77;;;;;;;;;;5054908;28;20024;-76
2022/04/30 12:31:54;;;;;;;3.45;1.00;;;;;;;;;;5054835;28;20017;-75
2022/04/30 12:34:20;;;;;;;;;;;;;;;;;;5055284;28;20032;-75
2022/04/30 12:36:58;;;;;;;2.00;0.80;;;;;;;;;;5054770;28;19912;-75
2022/04/30 12:39:25;;;;;;;2.45;0.90;;;;;;;;;;5054872;28;20025;-75
2022/04/30 12:41:53;;;;;;;4.35;1.30;;;;;;;;;;5053720;28;20028;-75
2022/04/30 12:44:22;;;;;;;3.65;1.10;;;;;;;;;;5053679;28;20025;-75
2022/04/30 12:46:49;;;;;;;3.60;1.30;;;;;;;;;;5055297;28;20028;-76
2022/04/30 12:49:19;;;;;;;3.97;1.42;;;;;;;;;;5057524;28;20579;-76
2022/04/30 12:51:50;;;;;;;2.65;0.90;;;;;;;;;;5060349;28;20025;-75
2022/04/30 12:54:18;;;;;;;3.28;0.80;;;;;;;;;;5057252;28;20032;-75
2022/04/30 12:56:46;;;;;;;3.90;0.95;;;;;;;;;;5057702;28;20021;-75
2022/04/30 12:59:16;;;;;;;3.33;0.90;;;;;;;;;;5057810;28;20123;-76
2022/04/30 13:01:43;;;;;;;2.10;0.68;;;;;;;;;;5060366;28;20080;-75
2022/04/30 13:04:12;;;;;;;3.65;1.33;;;;;;;;;;5060673;28;20017;-75
2022/04/30 13:06:39;;;;;;;2.30;0.45;;;;;;;;;;5061193;28;20099;-76
2022/04/30 13:14:37;;;;;;;3.33;0.88;;;;;;;;;;5062414;28;20082;-76
2022/04/30 13:17:04;;;;;;;3.30;0.80;;;;;;;;;;5062237;28;20029;-76
2022/04/30 13:19:32;;;;;;;3.17;0.98;;;;;;;;;;5062493;28;20021;-76
2022/04/30 13:22:01;;;;;;;4.75;1.88;;;;;;;;;;5062764;28;20013;-77
2022/04/30 13:24:29;;;;;;;3.88;1.30;;;;;;;;;;5061816;28;20021;-76
2022/04/30 13:26:57;;;;;;;1.48;0.90;;;;;;;;;;5062615;28;20052;-76
2022/04/30 13:29:25;;;;;;;2.40;0.75;;;;;;;;;;5061378;28;20375;-75
2022/04/30 13:31:52;;;;;;;2.22;0.70;;;;;;;;;;5063083;28;20059;-76
2022/04/30 13:34:22;;;;;;;2.17;0.50;;;;;;;;;;5063479;28;20032;-78
2022/04/30 13:36:49;;;;;;;1.23;0.40;;;;;;;;;;5061754;28;20031;-76
2022/04/30 13:39:17;;;;;;;2.05;0.60;;;;;;;;;;5062920;28;20079;-77
2022/04/30 13:41:44;;;;;;;3.10;0.77;;;;;;;;;;5063061;28;20017;-77
2022/04/30 13:44:11;;;;;;;2.10;0.55;;;;;;;;;;5060642;28;20466;-76
2022/04/30 13:46:39;;;;;;;2.13;0.50;;;;;;;;;;5058624;28;20044;-76
2022/04/30 13:49:06;;;;;;;2.78;0.68;;;;;;;;;;5060614;28;20029;-76
2022/04/30 13:51:33;;;;;;;3.67;0.85;;;;;;;;;;5059792;28;20045;-76
2022/04/30 13:54:01;;;;;;;2.05;0.70;;;;;;;;;;5057870;28;20350;-76
2022/04/30 13:56:28;;;;;;;4.13;0.70;;;;;;;;;;5058733;28;20100;-76
2022/04/30 13:58:58;;;;;;;2.28;0.47;;;;;;;;;;5058433;28;20021;-76
2022/04/30 14:01:26;;;;;;;1.52;0.52;;;;;;;;;;5058661;28;20024;-76
2022/04/30 14:03:53;;;;;;;2.97;0.50;;;;;;;;;;5057111;28;20021;-76
2022/04/30 14:06:20;;;;;;;4.05;0.65;;;;;;;;;;5060639;28;20064;-76
2022/04/30 14:08:47;;;;;;;2.53;0.63;;;;;;;;;;5058821;28;20051;-77
2022/04/30 14:11:14;;;;;;;3.85;0.60;;;;;;;;;;5059671;28;20392;-76
2022/04/30 14:16:28;;;;;;;3.45;0.60;;;;;;;;;;5061245;28;20566;-77
2022/04/30 14:18:55;;;;;;;2.42;0.63;;;;;;;;;;5059609;28;20370;-76
2022/04/30 14:21:22;;;;;;;1.83;0.65;;;;;;;;;;5058525;28;20250;-76
2022/04/30 14:23:49;;;;;;;2.30;0.55;;;;;;;;;;5058581;28;20465;-76
2022/04/30 14:26:17;;;;;;;3.88;0.70;;;;;;;;;;5059099;28;20082;-76
2022/04/30 14:28:44;;;;;;;1.65;0.43;;;;;;;;;;5060387;28;20021;-76
2022/04/30 14:31:12;;;;;;;2.40;0.60;;;;;;;;;;5059436;28;20065;-76
2022/04/30 14:33:40;;;;;;;2.65;0.65;;;;;;;;;;5057948;28;20100;-76
2022/04/30 14:36:10;;;;;;;2.80;0.68;;;;;;;;;;5057115;28;20028;-76
2022/04/30 14:38:40;;;;;;;3.08;0.90;;;;;;;;;;5057125;28;20105;-76
2022/04/30 14:41:07;;;;;;;3.40;0.60;;;;;;;;;;5054043;28;20017;-75
2022/04/30 14:43:34;;;;;;;3.42;0.75;;;;;;;;;;5057407;28;20242;-75
2022/04/30 14:46:05;;;;;;;3.42;0.75;;;;;;;;;;5058062;28;20155;-75
2022/04/30 14:48:32;;;;;;;4.32;0.70;;;;;;;;;;5056703;28;20025;-74
2022/04/30 14:50:59;;;;;;;5.15;0.73;;;;;;;;;;5057993;28;20025;-74
2022/04/30 14:53:26;;;;;;;2.70;0.65;;;;;;;;;;5057300;28;20055;-75
2022/04/30 14:55:57;;;;;;;3.78;0.70;;;;;;;;;;5058309;28;20025;-75
2022/04/30 14:58:24;;;;;;;3.10;0.90;;;;;;;;;;5058523;28;20033;-75
2022/04/30 15:00:51;;;;;;;2.78;0.70;;;;;;;;;;5058410;28;20427;-75
2022/04/30 15:03:18;;;;;;;2.15;0.75;;;;;;;;;;5054984;28;20385;-74
2022/04/30 15:05:46;;;;;;;2.22;0.52;;;;;;;;;;5054205;28;20029;-75
2022/04/30 15:08:14;;;;;;;4.10;0.70;;;;;;;;;;5059091;28;20063;-75
2022/04/30 15:10:41;;;;;;;2.53;0.70;;;;;;;;;;5055422;28;20056;-75
2022/04/30 15:13:08;;;;;;;4.03;0.80;;;;;;;;;;5053453;28;20029;-76
2022/04/30 15:15:35;;;;;;;4.22;0.70;;;;;;;;;;5054612;28;20029;-75
2022/04/30 15:18:02;;;;;;;2.47;0.82;;;;;;;;;;5052990;28;20409;-75
2022/04/30 15:20:30;;;;;;;2.72;0.65;;;;;;;;;;5055978;28;20021;-76
2022/04/30 15:22:57;;;;;;;4.18;0.60;;;;;;;;;;5059631;28;20102;-76
2022/04/30 15:25:24;;;;;;;3.38;0.65;;;;;;;;;;5058159;28;20021;-75
2022/04/30 15:27:51;;;;;;;2.17;0.63;;;;;;;;;;5059799;28;20021;-76
2022/04/30 15:30:18;;;;;;;4.20;0.57;;;;;;;;;;5063332;28;20074;-76
2022/04/30 15:32:47;;;;;;;1.23;0.52;;;;;;;;;;5062520;28;20111;-75
2022/04/30 15:35:14;;;;;;;3.70;0.60;;;;;;;;;;5060422;28;20025;-76
2022/04/30 15:37:42;;;;;;;3.45;0.65;;;;;;;;;;5060671;28;20025;-76
2022/04/30 15:40:11;;;;;;;2.80;0.60;;;;;;;;;;5061767;28;20017;-76
2022/04/30 15:42:38;;;;;;;2.47;0.90;;;;;;;;;;5058906;28;20032;-76
2022/04/30 15:45:06;;;;;;;3.13;0.60;;;;;;;;;;5059961;28;20100;-76
2022/04/30 15:53:04;;;;;;;1.85;0.65;;;;;;;;;;5063031;28;20048;-77